Terminal Aerodrome Forecast
Issued by NWS Des Moines, IA

Home | Current Version | Previous Version | Text Only | Print | Product List | Glossary On
Versions: 1 2 3 4 5 6 7 8 9 10 11 12 13 14 15 16 17 18 19 20 21 22 23 24 25 26 27 28 29 30 31 32
000
FTUS43 KDMX 142320
TAFALO
TAF
KALO 142320Z 1500/1524 21005KT P6SM SCT040 BKN120
     FM150400 VRB03KT P6SM BKN040
     FM150700 VRB03KT P6SM VCSH BKN035
     FM151100 06005KT P6SM -SHRA BKN020
     FM151600 01009KT P6SM SCT025 BKN035
     FM151900 35011KT P6SM FEW035=

USA.gov is the U.S. government's official web portal to all federal, state and local government web resources and services.